Liberty — WDC2845 — position and weather

sailwx.info

Track history (hours):
 
Tides and Currents Weather Stations Pressure Air Temp Water Temp Dewpoint Dewpoint Depression Visibility Wind Speed Wind Dir Waves Ship Positions

Liberty

Owner: AMNAV Maritime Corporation, Oakland, CA. More information available from US FCC via Universal Licensing System and Coast Guard Vessel Documentation Center.

Last reported at 2018-Jun-18 15:31 UTC. Time now 2018-Jun-18 15:34 UTC.
Position N 38°01' W 122°22'.

Length 20 m; draft 4.6 m.

Type: Towing. MMSI: 366998510.

Date/timePositionNaut miles runAvg speedWind from/ knotsBaromVisibWave heightAir tempDewpointWater temp
2018-Jun-18 15:31N 38°01' W 122°22'5 8.8
2018-Jun-18 14:58N 37°58' W 122°26'4 8.8
2018-Jun-18 14:30N 37°54' W 122°25'611.4
2018-Jun-18 14:01N 37°48' W 122°23'2 4.9
2018-Jun-18 13:30N 37°46' W 122°23'0 0.1
2018-Jun-18 13:00N 37°46' W 122°23'0 0.1
2018-Jun-18 12:30N 37°46' W 122°23'0 0.0
2018-Jun-18 12:00N 37°46' W 122°23'0 0.3
2018-Jun-18 11:30N 37°46' W 122°23'1 1.6
2018-Jun-18 11:00N 37°46' W 122°22'1 2.4
2018-Jun-18 10:30N 37°47' W 122°21'1 2.6
2018-Jun-18 10:00N 37°48' W 122°21'0 0.0
2018-Jun-18 09:30N 37°48' W 122°21'0 0.0
2018-Jun-18 09:00N 37°48' W 122°21'0 0.0
2018-Jun-18 08:30N 37°48' W 122°21'0 0.0
2018-Jun-18 08:00N 37°48' W 122°21'0 0.0
2018-Jun-18 07:30N 37°48' W 122°21'0 0.0
2018-Jun-18 07:00N 37°48' W 122°21'0 0.0
2018-Jun-18 06:30N 37°48' W 122°21'0 0.0
2018-Jun-18 06:00N 37°48' W 122°21'0 0.0
2018-Jun-18 05:30N 37°48' W 122°21'0 0.0
2018-Jun-18 05:00N 37°48' W 122°21'0 0.0
2018-Jun-18 04:30N 37°48' W 122°21'0 0.0
2018-Jun-18 03:58N 37°48' W 122°21'3 5.4
2018-Jun-18 03:30N 37°46' W 122°22'1 2.3
2018-Jun-18 03:00N 37°45' W 122°23'1 1.6
2018-Jun-18 02:30N 37°46' W 122°22'2 3.8
2018-Jun-18 02:00N 37°47' W 122°23'2 3.9
2018-Jun-18 01:30N 37°48' W 122°21'0 0.0
2018-Jun-18 01:00N 37°48' W 122°21'0 0.0
2018-Jun-18 00:30N 37°48' W 122°21'0 0.0
2018-Jun-18 00:00N 37°48' W 122°21'2 3.5
2018-Jun-17 23:30N 37°49' W 122°19'0 0.0
2018-Jun-17 23:00N 37°49' W 122°19'0 0.0
2018-Jun-17 22:30N 37°49' W 122°19'0 0.0
2018-Jun-17 22:00N 37°49' W 122°19'0 0.0
2018-Jun-17 21:30N 37°49' W 122°19'0 0.0
2018-Jun-17 21:00N 37°49' W 122°19'0 0.0
2018-Jun-17 20:30N 37°49' W 122°19'0 0.0
2018-Jun-17 20:00N 37°49' W 122°19'0 0.0
2018-Jun-17 19:30N 37°49' W 122°19'0 0.0
2018-Jun-17 19:00N 37°49' W 122°19'0 0.0
2018-Jun-17 18:30N 37°49' W 122°19'0 0.0
2018-Jun-17 18:00N 37°49' W 122°19'0 0.0
2018-Jun-17 17:30N 37°49' W 122°19'0 0.0
2018-Jun-17 17:00N 37°49' W 122°19'0 0.0
2018-Jun-17 16:30N 37°49' W 122°19'0 0.0
2018-Jun-17 16:00N 37°49' W 122°19'0 0.0
2018-Jun-17 15:30N 37°49' W 122°19'0 0.0
2018-Jun-17 15:00N 37°49' W 122°19'0 0.0
2018-Jun-17 14:30N 37°49' W 122°19'1 2.9
2018-Jun-17 14:00N 37°49' W 122°20'1 1.9
2018-Jun-17 13:30N 37°48' W 122°19'2 3.8
2018-Jun-17 13:00N 37°48' W 122°22'2 3.9
2018-Jun-17 12:30N 37°49' W 122°20'0 0.1
2018-Jun-17 12:00N 37°49' W 122°20'1 1.3
2018-Jun-17 11:30N 37°49' W 122°20'1 2.5
2018-Jun-17 11:00N 37°48' W 122°19'1 1.9
2018-Jun-17 10:31N 37°47' W 122°18'1 2.2
2018-Jun-17 10:00N 37°48' W 122°19'0 0.1
2018-Jun-17 09:30N 37°48' W 122°19'1 2.5
2018-Jun-17 09:00N 37°49' W 122°19'0 0.7
2018-Jun-17 08:30N 37°49' W 122°19'0 0.0
2018-Jun-17 08:00N 37°49' W 122°19'0 0.0
2018-Jun-17 07:30N 37°49' W 122°19'0 0.0
2018-Jun-17 07:00N 37°49' W 122°19'0 0.0
2018-Jun-17 06:30N 37°49' W 122°19'0 0.0
2018-Jun-17 06:00N 37°49' W 122°19'0 0.0
2018-Jun-17 05:30N 37°49' W 122°19'0 0.0
2018-Jun-17 05:00N 37°49' W 122°19'0 0.0
2018-Jun-17 04:31N 37°49' W 122°19'0 0.9
2018-Jun-17 04:00N 37°49' W 122°19'4 8.6
2018-Jun-17 03:30N 37°52' W 122°23'3 6.0
2018-Jun-17 03:00N 37°54' W 122°22'0 0.3
2018-Jun-17 02:30N 37°54' W 122°22'0 0.4
2018-Jun-17 02:00N 37°54' W 122°22'3 4.8
2018-Jun-17 01:29N 37°55' W 122°25'2 3.5
2018-Jun-17 01:00N 37°53' W 122°25'1 2.4
2018-Jun-17 00:30N 37°52' W 122°24'5 9.8
2018-Jun-17 00:01N 37°49' W 122°20'2 3.2
2018-Jun-16 23:31N 37°49' W 122°19'0 0.0
2018-Jun-16 23:00N 37°49' W 122°19'0 0.0
2018-Jun-16 22:30N 37°49' W 122°19'0 0.0
2018-Jun-16 22:00N 37°49' W 122°19'0 0.0
2018-Jun-16 21:30N 37°49' W 122°19'0 0.0
2018-Jun-16 21:00N 37°49' W 122°19'0 0.0
2018-Jun-16 20:30N 37°49' W 122°19'0 0.0
2018-Jun-16 20:00N 37°49' W 122°19'0 0.0
2018-Jun-16 19:30N 37°49' W 122°19'0 0.0
2018-Jun-16 19:00N 37°49' W 122°19'0 0.0
2018-Jun-16 18:30N 37°49' W 122°19'0 0.0
2018-Jun-16 18:00N 37°49' W 122°19'0 0.0
2018-Jun-16 17:30N 37°49' W 122°19'0 0.0
2018-Jun-16 17:00N 37°49' W 122°19'0 0.0
2018-Jun-16 16:30N 37°49' W 122°19'0 0.0
2018-Jun-16 16:00N 37°49' W 122°19'0 0.0
2018-Jun-16 15:30N 37°49' W 122°19'0 0.0
2018-Jun-16 15:00N 37°49' W 122°19'0 0.0
2018-Jun-16 14:30N 37°49' W 122°19'0 0.0
2018-Jun-16 14:00N 37°49' W 122°19'0 0.0
2018-Jun-16 13:30N 37°49' W 122°19'0 0.0
2018-Jun-16 13:00N 37°49' W 122°19'0 0.0
2018-Jun-16 12:30N 37°49' W 122°19'2 3.1
2018-Jun-16 12:00N 37°48' W 122°19'1 1.4
2018-Jun-16 11:30N 37°48' W 122°18'0 0.3
2018-Jun-16 11:00N 37°48' W 122°18'3 6.1
2018-Jun-16 10:31N 37°48' W 122°22'1 1.2
2018-Jun-16 10:00N 37°48' W 122°21'2 3.5
2018-Jun-16 09:30N 37°48' W 122°19'1 1.9
2018-Jun-16 09:00N 37°47' W 122°18'1 2.1
2018-Jun-16 08:30N 37°48' W 122°19'0 0.0
2018-Jun-16 08:00N 37°48' W 122°19'0 0.2
2018-Jun-16 07:30N 37°48' W 122°19'0 0.1
2018-Jun-16 07:00N 37°48' W 122°19'0 0.1
2018-Jun-16 06:30N 37°48' W 122°19'1 2.4
2018-Jun-16 06:00N 37°49' W 122°19'0 0.9
2018-Jun-16 05:30N 37°49' W 122°19'0 0.0
2018-Jun-16 05:00N 37°49' W 122°19'0 0.0
2018-Jun-16 04:30N 37°49' W 122°19'0 0.0
2018-Jun-16 04:00N 37°49' W 122°19'0 0.0
2018-Jun-16 03:30N 37°49' W 122°19'0 0.0
2018-Jun-16 03:00N 37°49' W 122°19'0 0.0
2018-Jun-16 02:30N 37°49' W 122°19'0 0.0
2018-Jun-16 02:00N 37°49' W 122°19'0 0.0
2018-Jun-16 01:30N 37°49' W 122°19'0 0.0
2018-Jun-16 01:00N 37°49' W 122°19'0 0.0
2018-Jun-16 00:30N 37°49' W 122°19'0 1.0
2018-Jun-16 00:00N 37°49' W 122°19'4 8.3
2018-Jun-15 23:30N 37°52' W 122°23'3 5.8
2018-Jun-15 23:00N 37°54' W 122°23'1 1.9
2018-Jun-15 22:30N 37°55' W 122°22'0 0.7
2018-Jun-15 21:59N 37°55' W 122°22'1 1.3
2018-Jun-15 21:31N 37°54' W 122°22'2 4.6
2018-Jun-15 21:01N 37°53' W 122°24'612.2
2018-Jun-15 20:30N 37°48' W 122°20'2 3.2
2018-Jun-15 20:00N 37°48' W 122°18'0 0.1
2018-Jun-15 19:30N 37°48' W 122°18'2 4.4
2018-Jun-15 19:00N 37°48' W 122°20'2 3.3
2018-Jun-15 18:30N 37°49' W 122°19'0 0.0
2018-Jun-15 18:00N 37°49' W 122°19'0 0.0
2018-Jun-15 17:30N 37°49' W 122°19'0 0.0
2018-Jun-15 16:59N 37°49' W 122°19'0 0.0
2018-Jun-15 16:30N 37°49' W 122°19'0 0.0
2018-Jun-15 16:00N 37°49' W 122°19'0 0.0
2018-Jun-15 15:30N 37°49' W 122°19'0 0.0
2018-Jun-15 15:00N 37°49' W 122°19'0 0.0
2018-Jun-15 14:30N 37°49' W 122°19'0 0.0
2018-Jun-15 14:00N 37°49' W 122°19'1 1.9
2018-Jun-15 13:30N 37°49' W 122°20'0 0.0
2018-Jun-15 13:00N 37°49' W 122°20'2 3.8
2018-Jun-15 12:28N 37°48' W 122°22'2 4.5
2018-Jun-15 12:00N 37°49' W 122°19'1 1.6
2018-Jun-15 11:30N 37°49' W 122°19'0 0.0
2018-Jun-15 11:00N 37°49' W 122°19'0 0.0
2018-Jun-15 10:30N 37°49' W 122°19'0 0.0
2018-Jun-15 10:00N 37°49' W 122°19'0 0.0
2018-Jun-15 09:30N 37°49' W 122°19'0 0.0
2018-Jun-15 09:00N 37°49' W 122°19'0 0.0
2018-Jun-15 08:30N 37°49' W 122°19'0 0.0
2018-Jun-15 08:00N 37°49' W 122°19'0 0.0
2018-Jun-15 07:30N 37°49' W 122°19'0 0.0
2018-Jun-15 07:00N 37°49' W 122°19'0 0.0
2018-Jun-15 06:30N 37°49' W 122°19'0 0.0
2018-Jun-15 06:00N 37°49' W 122°19'0 0.0
2018-Jun-15 05:30N 37°49' W 122°19'0 0.0
2018-Jun-15 05:00N 37°49' W 122°19'0 0.0
2018-Jun-15 04:30N 37°49' W 122°19'0 0.0
2018-Jun-15 04:00N 37°49' W 122°19'0 0.0
2018-Jun-15 03:30N 37°49' W 122°19'0 0.0
2018-Jun-15 03:00N 37°49' W 122°19'0 0.0
2018-Jun-15 02:30N 37°49' W 122°19'0 0.0
2018-Jun-15 02:00N 37°49' W 122°19'0 0.0
2018-Jun-15 01:30N 37°49' W 122°19'0 0.0
2018-Jun-15 01:00N 37°49' W 122°19'0 0.0
2018-Jun-15 00:30N 37°49' W 122°19'0 0.0
2018-Jun-15 00:00N 37°49' W 122°19'0 0.0
2018-Jun-14 23:30N 37°49' W 122°19'0 0.0
2018-Jun-14 23:00N 37°49' W 122°19'0 0.0
2018-Jun-14 22:30N 37°49' W 122°19'0 0.0
2018-Jun-14 22:00N 37°49' W 122°19'0 0.0
2018-Jun-14 21:30N 37°49' W 122°19'0 0.1
2018-Jun-14 21:00N 37°49' W 122°19'0 0.0
2018-Jun-14 20:30N 37°49' W 122°19'0 0.0
2018-Jun-14 20:00N 37°49' W 122°19'0 0.0
2018-Jun-14 19:30N 37°49' W 122°19'0 0.0
2018-Jun-14 19:00N 37°49' W 122°19'0 0.0
2018-Jun-14 18:30N 37°49' W 122°19'0 0.0
2018-Jun-14 18:00N 37°49' W 122°19'0 0.0
2018-Jun-14 17:30N 37°49' W 122°19'0 0.0
2018-Jun-14 17:00N 37°49' W 122°19'0 0.0
2018-Jun-14 16:30N 37°49' W 122°19'0 0.0
2018-Jun-14 16:00N 37°49' W 122°19'0 0.0
2018-Jun-14 15:30N 37°49' W 122°19'0 0.0
2018-Jun-14 15:00N 37°49' W 122°19'0 0.0
2018-Jun-14 14:30N 37°49' W 122°19'0 0.0
2018-Jun-14 14:00N 37°49' W 122°19'0 0.0
2018-Jun-14 13:30N 37°49' W 122°19'0 0.0
2018-Jun-14 13:00N 37°49' W 122°19'0 0.0
2018-Jun-14 12:30N 37°49' W 122°19'2 4.0
2018-Jun-14 12:00N 37°48' W 122°17'1 2.5
2018-Jun-14 11:31N 37°48' W 122°19'0 0.3
2018-Jun-14 11:00N 37°48' W 122°19'0 0.1
2018-Jun-14 10:30N 37°48' W 122°19'2 3.2
2018-Jun-14 10:00N 37°49' W 122°19'0 0.0
2018-Jun-14 09:30N 37°49' W 122°19'0 0.0
2018-Jun-14 09:00N 37°49' W 122°19'0 0.0
2018-Jun-14 08:30N 37°49' W 122°19'0 0.0
2018-Jun-14 08:00N 37°49' W 122°19'0 0.0
2018-Jun-14 07:30N 37°49' W 122°19'0 0.0
2018-Jun-14 07:00N 37°49' W 122°19'0 0.0
2018-Jun-14 06:30N 37°49' W 122°19'0 0.0
2018-Jun-14 06:00N 37°49' W 122°19'0 0.0
2018-Jun-14 05:30N 37°49' W 122°19'0 0.0
2018-Jun-14 05:00N 37°49' W 122°19'0 0.0
2018-Jun-14 04:30N 37°49' W 122°19'0 0.0
2018-Jun-14 04:00N 37°49' W 122°19'0 0.0
2018-Jun-14 03:30N 37°49' W 122°19'0 0.0
2018-Jun-14 03:00N 37°49' W 122°19'0 0.0
2018-Jun-14 02:30N 37°49' W 122°19'2 3.1
2018-Jun-14 02:00N 37°48' W 122°20'0 0.0
2018-Jun-14 01:30N 37°48' W 122°20'0 0.0
2018-Jun-14 01:00N 37°48' W 122°20'0 0.0
2018-Jun-14 00:30N 37°48' W 122°20'2 3.1
2018-Jun-14 00:00N 37°49' W 122°19'0 0.0
2018-Jun-13 23:30N 37°49' W 122°19'0 0.0
2018-Jun-13 23:00N 37°49' W 122°19'0 0.0
2018-Jun-13 22:30N 37°49' W 122°19'0 0.0
2018-Jun-13 21:59N 37°49' W 122°19'0 0.0
2018-Jun-13 21:30N 37°49' W 122°19'0 0.0
2018-Jun-13 21:00N 37°49' W 122°19'0 0.0
2018-Jun-13 20:30N 37°49' W 122°19'0 0.0
2018-Jun-13 20:00N 37°49' W 122°19'0 0.0
2018-Jun-13 19:30N 37°49' W 122°19'0 0.0
2018-Jun-13 19:00N 37°49' W 122°19'3 6.9
2018-Jun-13 18:30N 37°51' W 122°23'4 7.3
2018-Jun-13 18:00N 37°54' W 122°23'1 2.8
2018-Jun-13 17:30N 37°55' W 122°22'2 3.7
2018-Jun-13 17:00N 37°54' W 122°24'1 2.9
2018-Jun-13 16:30N 37°55' W 122°26'1 2.0
2018-Jun-13 16:00N 37°56' W 122°25'510.4
2018-Jun-13 15:30N 38°01' W 122°24'612.5
2018-Jun-13 15:00N 38°03' W 122°17'612.5
2018-Jun-13 14:29N 38°02' W 122°09'0 0.1
2018-Jun-13 09:56N 38°02' W 122°08'0 0.0
2018-Jun-13 09:30N 38°02' W 122°08'0 0.0
2018-Jun-13 08:51N 38°02' W 122°08'0 0.0
2018-Jun-13 06:04N 38°02' W 122°08'0 2.7
2018-Jun-13 06:00N 38°02' W 122°08'2 1.4
2018-Jun-13 04:38N 38°03' W 122°06'211.0
2018-Jun-13 04:28N 38°02' W 122°08'0 0.1
2018-Jun-13 03:14N 38°02' W 122°08'2 7.0
2018-Jun-13 02:58N 38°03' W 122°11'4 9.5
2018-Jun-13 02:30N 38°03' W 122°16'5 9.9
2018-Jun-13 02:00N 38°02' W 122°22'610.8
2018-Jun-13 01:29N 37°57' W 122°26'511.2
2018-Jun-13 01:00N 37°52' W 122°24'5 9.0
2018-Jun-13 00:30N 37°49' W 122°19'1 1.5
2018-Jun-13 00:00N 37°49' W 122°19'0 0.0
2018-Jun-12 23:30N 37°49' W 122°19'0 0.0
2018-Jun-12 23:00N 37°49' W 122°19'0 0.0
2018-Jun-12 22:30N 37°49' W 122°19'1 2.1
2018-Jun-12 22:00N 37°49' W 122°20'1 2.8
2018-Jun-12 21:31N 37°48' W 122°19'1 1.2
2018-Jun-12 21:00N 37°48' W 122°19'2 3.3
2018-Jun-12 20:30N 37°48' W 122°22'510.5
2018-Jun-12 20:00N 37°53' W 122°24'611.0
2018-Jun-12 19:30N 37°58' W 122°26'610.4
2018-Jun-12 18:57N 38°02' W 122°21'510.3
2018-Jun-12 18:30N 38°04' W 122°15'6 0.6
2018-Jun-12 09:56N 38°02' W 122°08'0 0.0
2018-Jun-12 09:29N 38°02' W 122°08'0 0.0
2018-Jun-12 09:00N 38°02' W 122°08'0 0.0
2018-Jun-12 08:26N 38°02' W 122°08'0 0.0
2018-Jun-11 23:04N 38°02' W 122°08'1 9.7
2018-Jun-11 23:00N 38°02' W 122°09'3 3.4
2018-Jun-11 22:00N 38°03' W 122°13'0 1.0
2018-Jun-11 21:30N 38°04' W 122°13'2 4.5
2018-Jun-11 20:59N 38°04' W 122°17'1 1.4
2018-Jun-11 20:28N 38°03' W 122°16'5 8.9
2018-Jun-11 19:55N 38°02' W 122°22'511.2
2018-Jun-11 19:26N 37°58' W 122°26'511.4
2018-Jun-11 19:00N 37°53' W 122°24'510.9
2018-Jun-11 18:30N 37°48' W 122°21'0 0.2
2018-Jun-11 18:00N 37°48' W 122°21'0 0.0
2018-Jun-11 17:30N 37°48' W 122°21'0 0.0
2018-Jun-11 17:00N 37°48' W 122°21'0 0.0
2018-Jun-11 16:30N 37°48' W 122°21'0 0.0
2018-Jun-11 16:00N 37°48' W 122°21'0 0.0
2018-Jun-11 15:30N 37°48' W 122°21'0 0.0
2018-Jun-11 15:00N 37°48' W 122°21'0 0.0
2018-Jun-11 14:30N 37°48' W 122°21'2 4.7
2018-Jun-11 14:00N 37°46' W 122°22'1 2.7
2018-Jun-11 13:30N 37°45' W 122°23'1 2.9
2018-Jun-11 13:00N 37°46' W 122°21'1 1.9
2018-Jun-11 12:31N 37°45' W 122°20'1 1.1
2018-Jun-11 12:00N 37°45' W 122°21'4 7.8
2018-Jun-11 11:30N 37°49' W 122°19'0 0.8
2018-Jun-11 11:00N 37°49' W 122°19'0 0.0
2018-Jun-11 10:30N 37°49' W 122°19'0 0.0
2018-Jun-11 10:00N 37°49' W 122°19'0 0.0
2018-Jun-11 09:30N 37°49' W 122°19'0 0.0
2018-Jun-11 09:00N 37°49' W 122°19'0 0.0
2018-Jun-11 08:30N 37°49' W 122°19'0 0.0
2018-Jun-11 08:00N 37°49' W 122°19'0 0.0
2018-Jun-11 07:30N 37°49' W 122°19'0 0.0
2018-Jun-11 07:00N 37°49' W 122°19'0 0.0
2018-Jun-11 06:30N 37°49' W 122°19'0 0.0
2018-Jun-11 06:00N 37°49' W 122°19'0 0.0
2018-Jun-11 05:30N 37°49' W 122°19'0 0.0
2018-Jun-11 05:00N 37°49' W 122°19'0 0.0
2018-Jun-11 04:30N 37°49' W 122°19'0 0.0
2018-Jun-11 04:00N 37°49' W 122°19'0 0.0
2018-Jun-11 03:30N 37°49' W 122°19'0 0.0
2018-Jun-11 03:00N 37°49' W 122°19'0 0.0
2018-Jun-11 02:30N 37°49' W 122°19'0 0.0
2018-Jun-11 02:00N 37°49' W 122°19'0 0.0
2018-Jun-11 01:30N 37°49' W 122°19'0 0.0
2018-Jun-11 01:00N 37°49' W 122°19'0 0.0
2018-Jun-11 00:30N 37°49' W 122°19'0 0.0
2018-Jun-11 00:00N 37°49' W 122°19'0 0.0
2018-Jun-10 23:30N 37°49' W 122°19'0 0.0
2018-Jun-10 23:00N 37°49' W 122°19'0 0.0
2018-Jun-10 22:30N 37°49' W 122°19'0 0.0
2018-Jun-10 22:00N 37°49' W 122°19'0 0.0
2018-Jun-10 21:30N 37°49' W 122°19'0 0.0
2018-Jun-10 21:00N 37°49' W 122°19'0 0.0
2018-Jun-10 20:30N 37°49' W 122°19'0 0.0
2018-Jun-10 20:00N 37°49' W 122°19'0 0.0
2018-Jun-10 19:30N 37°49' W 122°19'0 0.0
2018-Jun-10 19:00N 37°49' W 122°19'0 0.0
2018-Jun-10 18:30N 37°49' W 122°19'0 0.0
2018-Jun-10 18:00N 37°49' W 122°19'0 0.0
2018-Jun-10 17:30N 37°49' W 122°19'0 0.0
2018-Jun-10 17:00N 37°49' W 122°19'0 0.0
2018-Jun-10 16:30N 37°49' W 122°19'0 0.0
2018-Jun-10 16:00N 37°49' W 122°19'0 0.0
2018-Jun-10 15:30N 37°49' W 122°19'0 0.0
2018-Jun-10 15:00N 37°49' W 122°19'1 1.1
2018-Jun-10 14:30N 37°49' W 122°19'1 1.2
2018-Jun-10 13:30N 37°48' W 122°19'1 2.5
2018-Jun-10 13:00N 37°48' W 122°17'1 2.6
2018-Jun-10 12:30N 37°48' W 122°19'2 4.4
2018-Jun-10 12:00N 37°48' W 122°22'3 5.4
2018-Jun-10 11:30N 37°49' W 122°19'0 0.0
2018-Jun-10 11:00N 37°49' W 122°19'0 0.0
2018-Jun-10 10:30N 37°49' W 122°19'0 0.0
2018-Jun-10 10:00N 37°49' W 122°19'0 0.0
2018-Jun-10 09:30N 37°49' W 122°19'0 0.0
2018-Jun-10 09:00N 37°49' W 122°19'0 0.0
2018-Jun-10 08:30N 37°49' W 122°19'0 0.0
2018-Jun-10 08:00N 37°49' W 122°19'0 0.0
2018-Jun-10 07:30N 37°49' W 122°19'0 0.0
2018-Jun-10 07:00N 37°49' W 122°19'0 0.0
2018-Jun-10 06:30N 37°49' W 122°19'0 0.0
2018-Jun-10 06:00N 37°49' W 122°19'0 0.0
2018-Jun-10 05:30N 37°49' W 122°19'0 0.0
2018-Jun-10 05:00N 37°49' W 122°19'0 0.0
2018-Jun-10 04:29N 37°49' W 122°19'0 0.0
2018-Jun-10 04:00N 37°49' W 122°19'0 0.0
2018-Jun-10 03:30N 37°49' W 122°19'0 0.0
2018-Jun-10 03:00N 37°49' W 122°19'0 0.0
2018-Jun-10 02:30N 37°49' W 122°19'0 0.0
2018-Jun-10 02:00N 37°49' W 122°19'0 0.0
2018-Jun-10 01:30N 37°49' W 122°19'0 0.0
2018-Jun-10 01:00N 37°49' W 122°19'0 0.0
2018-Jun-10 00:30N 37°49' W 122°19'0 0.0
2018-Jun-10 00:00N 37°49' W 122°19'0 0.4
2018-Jun-09 23:30N 37°49' W 122°19'1 2.8
2018-Jun-09 23:00N 37°48' W 122°19'0 0.9
2018-Jun-09 22:30N 37°48' W 122°19'1 2.4
2018-Jun-09 22:00N 37°48' W 122°17'2 3.0
2018-Jun-09 21:30N 37°48' W 122°19'2 4.5
2018-Jun-09 21:00N 37°48' W 122°22'3 5.7
2018-Jun-09 20:30N 37°49' W 122°19'0 0.0
2018-Jun-09 20:00N 37°49' W 122°19'0 0.0
2018-Jun-09 19:30N 37°49' W 122°19'0 0.0
2018-Jun-09 19:00N 37°49' W 122°19'0 0.0
2018-Jun-09 18:30N 37°49' W 122°19'0 0.0
2018-Jun-09 18:00N 37°49' W 122°19'1 2.9
2018-Jun-09 17:30N 37°49' W 122°20'3 5.1
2018-Jun-09 17:00N 37°48' W 122°17'2 3.2
2018-Jun-09 16:30N 37°47' W 122°15'0 0.7
2018-Jun-09 16:00N 37°47' W 122°15'2 1.7
2018-Jun-09 15:00N 37°48' W 122°17'0 0.0
2018-Jun-09 14:30N 37°48' W 122°17'0 0.0
2018-Jun-09 14:00N 37°48' W 122°17'1 2.3
2018-Jun-09 13:31N 37°48' W 122°18'1 1.7
2018-Jun-09 13:00N 37°48' W 122°19'2 3.2
2018-Jun-09 12:30N 37°48' W 122°17'1 2.9
2018-Jun-09 12:00N 37°48' W 122°19'2 4.5
2018-Jun-09 11:30N 37°48' W 122°22'1 2.4
2018-Jun-09 11:00N 37°48' W 122°21'0 0.0
2018-Jun-09 10:30N 37°48' W 122°21'0 0.0
2018-Jun-09 10:00N 37°48' W 122°21'0 0.0
2018-Jun-09 09:30N 37°48' W 122°21'0 0.0
2018-Jun-09 08:58N 37°48' W 122°21'0 0.0
2018-Jun-09 08:30N 37°48' W 122°21'0 0.0
2018-Jun-09 08:00N 37°48' W 122°21'0 0.0
2018-Jun-09 07:30N 37°48' W 122°21'0 0.1
2018-Jun-09 07:00N 37°48' W 122°21'0 0.1
2018-Jun-09 06:30N 37°48' W 122°21'0 0.0
2018-Jun-09 05:59N 37°48' W 122°21'0 0.0
2018-Jun-09 05:30N 37°48' W 122°21'0 0.0
2018-Jun-09 05:00N 37°48' W 122°21'3 5.9
2018-Jun-09 04:30N 37°51' W 122°23'5 9.8
2018-Jun-09 04:00N 37°55' W 122°25'3 5.0
2018-Jun-09 03:30N 37°54' W 122°22'1 1.7
2018-Jun-09 02:57N 37°55' W 122°22'0 0.6
2018-Jun-09 02:30N 37°55' W 122°22'3 5.7
2018-Jun-09 02:00N 37°53' W 122°24'510.2
2018-Jun-09 01:30N 37°48' W 122°21'0 0.0
2018-Jun-09 01:00N 37°48' W 122°21'0 0.0
2018-Jun-09 00:30N 37°48' W 122°21'0 0.0
2018-Jun-09 00:00N 37°48' W 122°21'1 2.0
2018-Jun-08 23:30N 37°48' W 122°20'1 1.1
2018-Jun-08 23:00N 37°48' W 122°19'0 0.1
2018-Jun-08 22:30N 37°48' W 122°19'2 3.2
2018-Jun-08 22:00N 37°49' W 122°19'0 0.0
2018-Jun-08 21:30N 37°49' W 122°19'0 0.0
2018-Jun-08 21:00N 37°49' W 122°19'0 0.0
2018-Jun-08 20:30N 37°49' W 122°19'0 0.0
2018-Jun-08 20:00N 37°49' W 122°19'0 0.0
2018-Jun-08 19:30N 37°49' W 122°19'0 0.0
2018-Jun-08 19:00N 37°49' W 122°19'0 0.0
2018-Jun-08 18:30N 37°49' W 122°19'0 0.0
2018-Jun-08 18:00N 37°49' W 122°19'0 0.0
2018-Jun-08 17:30N 37°49' W 122°19'0 0.0
2018-Jun-08 17:00N 37°49' W 122°19'0 0.0
2018-Jun-08 16:30N 37°49' W 122°19'0 0.0
2018-Jun-08 16:00N 37°49' W 122°19'  
Track history (hours):
 
Tides and Currents Weather Stations Pressure Air Temp Water Temp Dewpoint Dewpoint Depression Visibility Wind Speed Wind Dir Waves Ship Positions

Liberty

Owner: AMNAV Maritime Corporation, Oakland, CA. More information available from US FCC via Universal Licensing System and Coast Guard Vessel Documentation Center.

Last reported at 2018-Jun-18 15:31 UTC. Time now 2018-Jun-18 15:34 UTC.
Position N 38°01' W 122°22'.

Length 20 m; draft 4.6 m.

Type: Towing. MMSI: 366998510.

Date/timePositionNaut miles runAvg speedWind from/ knotsBaromVisibWave heightAir tempDewpointWater temp
2018-Jun-18 15:31N 38°01' W 122°22'5 8.8
2018-Jun-18 14:58N 37°58' W 122°26'4 8.8
2018-Jun-18 14:30N 37°54' W 122°25'611.4
2018-Jun-18 14:01N 37°48' W 122°23'2 4.9
2018-Jun-18 13:30N 37°46' W 122°23'0 0.1
2018-Jun-18 13:00N 37°46' W 122°23'0 0.1
2018-Jun-18 12:30N 37°46' W 122°23'0 0.0
2018-Jun-18 12:00N 37°46' W 122°23'0 0.3
2018-Jun-18 11:30N 37°46' W 122°23'1 1.6
2018-Jun-18 11:00N 37°46' W 122°22'1 2.4
2018-Jun-18 10:30N 37°47' W 122°21'1 2.6
2018-Jun-18 10:00N 37°48' W 122°21'0 0.0
2018-Jun-18 09:30N 37°48' W 122°21'0 0.0
2018-Jun-18 09:00N 37°48' W 122°21'0 0.0
2018-Jun-18 08:30N 37°48' W 122°21'0 0.0
2018-Jun-18 08:00N 37°48' W 122°21'0 0.0
2018-Jun-18 07:30N 37°48' W 122°21'0 0.0
2018-Jun-18 07:00N 37°48' W 122°21'0 0.0
2018-Jun-18 06:30N 37°48' W 122°21'0 0.0
2018-Jun-18 06:00N 37°48' W 122°21'0 0.0
2018-Jun-18 05:30N 37°48' W 122°21'0 0.0
2018-Jun-18 05:00N 37°48' W 122°21'0 0.0
2018-Jun-18 04:30N 37°48' W 122°21'0 0.0
2018-Jun-18 03:58N 37°48' W 122°21'3 5.4
2018-Jun-18 03:30N 37°46' W 122°22'1 2.3
2018-Jun-18 03:00N 37°45' W 122°23'1 1.6
2018-Jun-18 02:30N 37°46' W 122°22'2 3.8
2018-Jun-18 02:00N 37°47' W 122°23'2 3.9
2018-Jun-18 01:30N 37°48' W 122°21'0 0.0
2018-Jun-18 01:00N 37°48' W 122°21'0 0.0
2018-Jun-18 00:30N 37°48' W 122°21'0 0.0
2018-Jun-18 00:00N 37°48' W 122°21'2 3.5
2018-Jun-17 23:30N 37°49' W 122°19'0 0.0
2018-Jun-17 23:00N 37°49' W 122°19'0 0.0
2018-Jun-17 22:30N 37°49' W 122°19'0 0.0
2018-Jun-17 22:00N 37°49' W 122°19'0 0.0
2018-Jun-17 21:30N 37°49' W 122°19'0 0.0
2018-Jun-17 21:00N 37°49' W 122°19'0 0.0
2018-Jun-17 20:30N 37°49' W 122°19'0 0.0
2018-Jun-17 20:00N 37°49' W 122°19'0 0.0
2018-Jun-17 19:30N 37°49' W 122°19'0 0.0
2018-Jun-17 19:00N 37°49' W 122°19'0 0.0
2018-Jun-17 18:30N 37°49' W 122°19'0 0.0
2018-Jun-17 18:00N 37°49' W 122°19'0 0.0
2018-Jun-17 17:30N 37°49' W 122°19'0 0.0
2018-Jun-17 17:00N 37°49' W 122°19'0 0.0
2018-Jun-17 16:30N 37°49' W 122°19'0 0.0
2018-Jun-17 16:00N 37°49' W 122°19'0 0.0
2018-Jun-17 15:30N 37°49' W 122°19'0 0.0
2018-Jun-17 15:00N 37°49' W 122°19'0 0.0
2018-Jun-17 14:30N 37°49' W 122°19'1 2.9
2018-Jun-17 14:00N 37°49' W 122°20'1 1.9
2018-Jun-17 13:30N 37°48' W 122°19'2 3.8
2018-Jun-17 13:00N 37°48' W 122°22'2 3.9
2018-Jun-17 12:30N 37°49' W 122°20'0 0.1
2018-Jun-17 12:00N 37°49' W 122°20'1 1.3
2018-Jun-17 11:30N 37°49' W 122°20'1 2.5
2018-Jun-17 11:00N 37°48' W 122°19'1 1.9
2018-Jun-17 10:31N 37°47' W 122°18'1 2.2
2018-Jun-17 10:00N 37°48' W 122°19'0 0.1
2018-Jun-17 09:30N 37°48' W 122°19'1 2.5
2018-Jun-17 09:00N 37°49' W 122°19'0 0.7
2018-Jun-17 08:30N 37°49' W 122°19'0 0.0
2018-Jun-17 08:00N 37°49' W 122°19'0 0.0
2018-Jun-17 07:30N 37°49' W 122°19'0 0.0
2018-Jun-17 07:00N 37°49' W 122°19'0 0.0
2018-Jun-17 06:30N 37°49' W 122°19'0 0.0
2018-Jun-17 06:00N 37°49' W 122°19'0 0.0
2018-Jun-17 05:30N 37°49' W 122°19'0 0.0
2018-Jun-17 05:00N 37°49' W 122°19'0 0.0
2018-Jun-17 04:31N 37°49' W 122°19'0 0.9
2018-Jun-17 04:00N 37°49' W 122°19'4 8.6
2018-Jun-17 03:30N 37°52' W 122°23'3 6.0
2018-Jun-17 03:00N 37°54' W 122°22'0 0.3
2018-Jun-17 02:30N 37°54' W 122°22'0 0.4
2018-Jun-17 02:00N 37°54' W 122°22'3 4.8
2018-Jun-17 01:29N 37°55' W 122°25'2 3.5
2018-Jun-17 01:00N 37°53' W 122°25'1 2.4
2018-Jun-17 00:30N 37°52' W 122°24'5 9.8
2018-Jun-17 00:01N 37°49' W 122°20'2 3.2
2018-Jun-16 23:31N 37°49' W 122°19'0 0.0
2018-Jun-16 23:00N 37°49' W 122°19'0 0.0
2018-Jun-16 22:30N 37°49' W 122°19'0 0.0
2018-Jun-16 22:00N 37°49' W 122°19'0 0.0
2018-Jun-16 21:30N 37°49' W 122°19'0 0.0
2018-Jun-16 21:00N 37°49' W 122°19'0 0.0
2018-Jun-16 20:30N 37°49' W 122°19'0 0.0
2018-Jun-16 20:00N 37°49' W 122°19'0 0.0
2018-Jun-16 19:30N 37°49' W 122°19'0 0.0
2018-Jun-16 19:00N 37°49' W 122°19'0 0.0
2018-Jun-16 18:30N 37°49' W 122°19'0 0.0
2018-Jun-16 18:00N 37°49' W 122°19'0 0.0
2018-Jun-16 17:30N 37°49' W 122°19'0 0.0
2018-Jun-16 17:00N 37°49' W 122°19'0 0.0
2018-Jun-16 16:30N 37°49' W 122°19'0 0.0
2018-Jun-16 16:00N 37°49' W 122°19'0 0.0
2018-Jun-16 15:30N 37°49' W 122°19'0 0.0
2018-Jun-16 15:00N 37°49' W 122°19'0 0.0
2018-Jun-16 14:30N 37°49' W 122°19'0 0.0
2018-Jun-16 14:00N 37°49' W 122°19'0 0.0
2018-Jun-16 13:30N 37°49' W 122°19'0 0.0
2018-Jun-16 13:00N 37°49' W 122°19'0 0.0
2018-Jun-16 12:30N 37°49' W 122°19'2 3.1
2018-Jun-16 12:00N 37°48' W 122°19'1 1.4
2018-Jun-16 11:30N 37°48' W 122°18'0 0.3
2018-Jun-16 11:00N 37°48' W 122°18'3 6.1
2018-Jun-16 10:31N 37°48' W 122°22'1 1.2
2018-Jun-16 10:00N 37°48' W 122°21'2 3.5
2018-Jun-16 09:30N 37°48' W 122°19'1 1.9
2018-Jun-16 09:00N 37°47' W 122°18'1 2.1
2018-Jun-16 08:30N 37°48' W 122°19'0 0.0
2018-Jun-16 08:00N 37°48' W 122°19'0 0.2
2018-Jun-16 07:30N 37°48' W 122°19'0 0.1
2018-Jun-16 07:00N 37°48' W 122°19'0 0.1
2018-Jun-16 06:30N 37°48' W 122°19'1 2.4
2018-Jun-16 06:00N 37°49' W 122°19'0 0.9
2018-Jun-16 05:30N 37°49' W 122°19'0 0.0
2018-Jun-16 05:00N 37°49' W 122°19'0 0.0
2018-Jun-16 04:30N 37°49' W 122°19'0 0.0
2018-Jun-16 04:00N 37°49' W 122°19'0 0.0
2018-Jun-16 03:30N 37°49' W 122°19'0 0.0
2018-Jun-16 03:00N 37°49' W 122°19'0 0.0
2018-Jun-16 02:30N 37°49' W 122°19'0 0.0
2018-Jun-16 02:00N 37°49' W 122°19'0 0.0
2018-Jun-16 01:30N 37°49' W 122°19'0 0.0
2018-Jun-16 01:00N 37°49' W 122°19'0 0.0
2018-Jun-16 00:30N 37°49' W 122°19'0 1.0
2018-Jun-16 00:00N 37°49' W 122°19'4 8.3
2018-Jun-15 23:30N 37°52' W 122°23'3 5.8
2018-Jun-15 23:00N 37°54' W 122°23'1 1.9
2018-Jun-15 22:30N 37°55' W 122°22'0 0.7
2018-Jun-15 21:59N 37°55' W 122°22'1 1.3
2018-Jun-15 21:31N 37°54' W 122°22'2 4.6
2018-Jun-15 21:01N 37°53' W 122°24'612.2
2018-Jun-15 20:30N 37°48' W 122°20'2 3.2
2018-Jun-15 20:00N 37°48' W 122°18'0 0.1
2018-Jun-15 19:30N 37°48' W 122°18'2 4.4
2018-Jun-15 19:00N 37°48' W 122°20'2 3.3
2018-Jun-15 18:30N 37°49' W 122°19'0 0.0
2018-Jun-15 18:00N 37°49' W 122°19'0 0.0
2018-Jun-15 17:30N 37°49' W 122°19'0 0.0
2018-Jun-15 16:59N 37°49' W 122°19'0 0.0
2018-Jun-15 16:30N 37°49' W 122°19'0 0.0
2018-Jun-15 16:00N 37°49' W 122°19'0 0.0
2018-Jun-15 15:30N 37°49' W 122°19'0 0.0
2018-Jun-15 15:00N 37°49' W 122°19'0 0.0
2018-Jun-15 14:30N 37°49' W 122°19'0 0.0
2018-Jun-15 14:00N 37°49' W 122°19'1 1.9
2018-Jun-15 13:30N 37°49' W 122°20'0 0.0
2018-Jun-15 13:00N 37°49' W 122°20'2 3.8
2018-Jun-15 12:28N 37°48' W 122°22'2 4.5
2018-Jun-15 12:00N 37°49' W 122°19'1 1.6
2018-Jun-15 11:30N 37°49' W 122°19'0 0.0
2018-Jun-15 11:00N 37°49' W 122°19'0 0.0
2018-Jun-15 10:30N 37°49' W 122°19'0 0.0
2018-Jun-15 10:00N 37°49' W 122°19'0 0.0
2018-Jun-15 09:30N 37°49' W 122°19'0 0.0
2018-Jun-15 09:00N 37°49' W 122°19'0 0.0
2018-Jun-15 08:30N 37°49' W 122°19'0 0.0
2018-Jun-15 08:00N 37°49' W 122°19'0 0.0
2018-Jun-15 07:30N 37°49' W 122°19'0 0.0
2018-Jun-15 07:00N 37°49' W 122°19'0 0.0
2018-Jun-15 06:30N 37°49' W 122°19'0 0.0
2018-Jun-15 06:00N 37°49' W 122°19'0 0.0
2018-Jun-15 05:30N 37°49' W 122°19'0 0.0
2018-Jun-15 05:00N 37°49' W 122°19'0 0.0
2018-Jun-15 04:30N 37°49' W 122°19'0 0.0
2018-Jun-15 04:00N 37°49' W 122°19'0 0.0
2018-Jun-15 03:30N 37°49' W 122°19'0 0.0
2018-Jun-15 03:00N 37°49' W 122°19'0 0.0
2018-Jun-15 02:30N 37°49' W 122°19'0 0.0
2018-Jun-15 02:00N 37°49' W 122°19'0 0.0
2018-Jun-15 01:30N 37°49' W 122°19'0 0.0
2018-Jun-15 01:00N 37°49' W 122°19'0 0.0
2018-Jun-15 00:30N 37°49' W 122°19'0 0.0
2018-Jun-15 00:00N 37°49' W 122°19'0 0.0
2018-Jun-14 23:30N 37°49' W 122°19'0 0.0
2018-Jun-14 23:00N 37°49' W 122°19'0 0.0
2018-Jun-14 22:30N 37°49' W 122°19'0 0.0
2018-Jun-14 22:00N 37°49' W 122°19'0 0.0
2018-Jun-14 21:30N 37°49' W 122°19'0 0.1
2018-Jun-14 21:00N 37°49' W 122°19'0 0.0
2018-Jun-14 20:30N 37°49' W 122°19'0 0.0
2018-Jun-14 20:00N 37°49' W 122°19'0 0.0
2018-Jun-14 19:30N 37°49' W 122°19'0 0.0
2018-Jun-14 19:00N 37°49' W 122°19'0 0.0
2018-Jun-14 18:30N 37°49' W 122°19'0 0.0
2018-Jun-14 18:00N 37°49' W 122°19'0 0.0
2018-Jun-14 17:30N 37°49' W 122°19'0 0.0
2018-Jun-14 17:00N 37°49' W 122°19'0 0.0
2018-Jun-14 16:30N 37°49' W 122°19'0 0.0
2018-Jun-14 16:00N 37°49' W 122°19'0 0.0
2018-Jun-14 15:30N 37°49' W 122°19'0 0.0
2018-Jun-14 15:00N 37°49' W 122°19'0 0.0
2018-Jun-14 14:30N 37°49' W 122°19'0 0.0
2018-Jun-14 14:00N 37°49' W 122°19'0 0.0
2018-Jun-14 13:30N 37°49' W 122°19'0 0.0
2018-Jun-14 13:00N 37°49' W 122°19'0 0.0
2018-Jun-14 12:30N 37°49' W 122°19'2 4.0
2018-Jun-14 12:00N 37°48' W 122°17'1 2.5
2018-Jun-14 11:31N 37°48' W 122°19'0 0.3
2018-Jun-14 11:00N 37°48' W 122°19'0 0.1
2018-Jun-14 10:30N 37°48' W 122°19'2 3.2
2018-Jun-14 10:00N 37°49' W 122°19'0 0.0
2018-Jun-14 09:30N 37°49' W 122°19'0 0.0
2018-Jun-14 09:00N 37°49' W 122°19'0 0.0
2018-Jun-14 08:30N 37°49' W 122°19'0 0.0
2018-Jun-14 08:00N 37°49' W 122°19'0 0.0
2018-Jun-14 07:30N 37°49' W 122°19'0 0.0
2018-Jun-14 07:00N 37°49' W 122°19'0 0.0
2018-Jun-14 06:30N 37°49' W 122°19'0 0.0
2018-Jun-14 06:00N 37°49' W 122°19'0 0.0
2018-Jun-14 05:30N 37°49' W 122°19'0 0.0
2018-Jun-14 05:00N 37°49' W 122°19'0 0.0
2018-Jun-14 04:30N 37°49' W 122°19'0 0.0
2018-Jun-14 04:00N 37°49' W 122°19'0 0.0
2018-Jun-14 03:30N 37°49' W 122°19'0 0.0
2018-Jun-14 03:00N 37°49' W 122°19'0 0.0
2018-Jun-14 02:30N 37°49' W 122°19'2 3.1
2018-Jun-14 02:00N 37°48' W 122°20'0 0.0
2018-Jun-14 01:30N 37°48' W 122°20'0 0.0
2018-Jun-14 01:00N 37°48' W 122°20'0 0.0
2018-Jun-14 00:30N 37°48' W 122°20'2 3.1
2018-Jun-14 00:00N 37°49' W 122°19'0 0.0
2018-Jun-13 23:30N 37°49' W 122°19'0 0.0
2018-Jun-13 23:00N 37°49' W 122°19'0 0.0
2018-Jun-13 22:30N 37°49' W 122°19'0 0.0
2018-Jun-13 21:59N 37°49' W 122°19'0 0.0
2018-Jun-13 21:30N 37°49' W 122°19'0 0.0
2018-Jun-13 21:00N 37°49' W 122°19'0 0.0
2018-Jun-13 20:30N 37°49' W 122°19'0 0.0
2018-Jun-13 20:00N 37°49' W 122°19'0 0.0
2018-Jun-13 19:30N 37°49' W 122°19'0 0.0
2018-Jun-13 19:00N 37°49' W 122°19'3 6.9
2018-Jun-13 18:30N 37°51' W 122°23'4 7.3
2018-Jun-13 18:00N 37°54' W 122°23'1 2.8
2018-Jun-13 17:30N 37°55' W 122°22'2 3.7
2018-Jun-13 17:00N 37°54' W 122°24'1 2.9
2018-Jun-13 16:30N 37°55' W 122°26'1 2.0
2018-Jun-13 16:00N 37°56' W 122°25'510.4
2018-Jun-13 15:30N 38°01' W 122°24'612.5
2018-Jun-13 15:00N 38°03' W 122°17'612.5
2018-Jun-13 14:29N 38°02' W 122°09'0 0.1
2018-Jun-13 09:56N 38°02' W 122°08'0 0.0
2018-Jun-13 09:30N 38°02' W 122°08'0 0.0
2018-Jun-13 08:51N 38°02' W 122°08'0 0.0
2018-Jun-13 06:04N 38°02' W 122°08'0 2.7
2018-Jun-13 06:00N 38°02' W 122°08'2 1.4
2018-Jun-13 04:38N 38°03' W 122°06'211.0
2018-Jun-13 04:28N 38°02' W 122°08'0 0.1
2018-Jun-13 03:14N 38°02' W 122°08'2 7.0
2018-Jun-13 02:58N 38°03' W 122°11'4 9.5
2018-Jun-13 02:30N 38°03' W 122°16'5 9.9
2018-Jun-13 02:00N 38°02' W 122°22'610.8
2018-Jun-13 01:29N 37°57' W 122°26'511.2
2018-Jun-13 01:00N 37°52' W 122°24'5 9.0
2018-Jun-13 00:30N 37°49' W 122°19'1 1.5
2018-Jun-13 00:00N 37°49' W 122°19'0 0.0
2018-Jun-12 23:30N 37°49' W 122°19'0 0.0
2018-Jun-12 23:00N 37°49' W 122°19'0 0.0
2018-Jun-12 22:30N 37°49' W 122°19'1 2.1
2018-Jun-12 22:00N 37°49' W 122°20'1 2.8
2018-Jun-12 21:31N 37°48' W 122°19'1 1.2
2018-Jun-12 21:00N 37°48' W 122°19'2 3.3
2018-Jun-12 20:30N 37°48' W 122°22'510.5
2018-Jun-12 20:00N 37°53' W 122°24'611.0
2018-Jun-12 19:30N 37°58' W 122°26'610.4
2018-Jun-12 18:57N 38°02' W 122°21'510.3
2018-Jun-12 18:30N 38°04' W 122°15'6 0.6
2018-Jun-12 09:56N 38°02' W 122°08'0 0.0
2018-Jun-12 09:29N 38°02' W 122°08'0 0.0
2018-Jun-12 09:00N 38°02' W 122°08'0 0.0
2018-Jun-12 08:26N 38°02' W 122°08'0 0.0
2018-Jun-11 23:04N 38°02' W 122°08'1 9.7
2018-Jun-11 23:00N 38°02' W 122°09'3 3.4
2018-Jun-11 22:00N 38°03' W 122°13'0 1.0
2018-Jun-11 21:30N 38°04' W 122°13'2 4.5
2018-Jun-11 20:59N 38°04' W 122°17'1 1.4
2018-Jun-11 20:28N 38°03' W 122°16'5 8.9
2018-Jun-11 19:55N 38°02' W 122°22'511.2
2018-Jun-11 19:26N 37°58' W 122°26'511.4
2018-Jun-11 19:00N 37°53' W 122°24'510.9
2018-Jun-11 18:30N 37°48' W 122°21'0 0.2
2018-Jun-11 18:00N 37°48' W 122°21'0 0.0
2018-Jun-11 17:30N 37°48' W 122°21'0 0.0
2018-Jun-11 17:00N 37°48' W 122°21'0 0.0
2018-Jun-11 16:30N 37°48' W 122°21'0 0.0
2018-Jun-11 16:00N 37°48' W 122°21'0 0.0
2018-Jun-11 15:30N 37°48' W 122°21'0 0.0
2018-Jun-11 15:00N 37°48' W 122°21'0 0.0
2018-Jun-11 14:30N 37°48' W 122°21'2 4.7
2018-Jun-11 14:00N 37°46' W 122°22'1 2.7
2018-Jun-11 13:30N 37°45' W 122°23'1 2.9
2018-Jun-11 13:00N 37°46' W 122°21'1 1.9
2018-Jun-11 12:31N 37°45' W 122°20'1 1.1
2018-Jun-11 12:00N 37°45' W 122°21'4 7.8
2018-Jun-11 11:30N 37°49' W 122°19'0 0.8
2018-Jun-11 11:00N 37°49' W 122°19'0 0.0
2018-Jun-11 10:30N 37°49' W 122°19'0 0.0
2018-Jun-11 10:00N 37°49' W 122°19'0 0.0
2018-Jun-11 09:30N 37°49' W 122°19'0 0.0
2018-Jun-11 09:00N 37°49' W 122°19'0 0.0
2018-Jun-11 08:30N 37°49' W 122°19'0 0.0
2018-Jun-11 08:00N 37°49' W 122°19'0 0.0
2018-Jun-11 07:30N 37°49' W 122°19'0 0.0
2018-Jun-11 07:00N 37°49' W 122°19'0 0.0
2018-Jun-11 06:30N 37°49' W 122°19'0 0.0
2018-Jun-11 06:00N 37°49' W 122°19'0 0.0
2018-Jun-11 05:30N 37°49' W 122°19'0 0.0
2018-Jun-11 05:00N 37°49' W 122°19'0 0.0
2018-Jun-11 04:30N 37°49' W 122°19'0 0.0
2018-Jun-11 04:00N 37°49' W 122°19'0 0.0
2018-Jun-11 03:30N 37°49' W 122°19'0 0.0
2018-Jun-11 03:00N 37°49' W 122°19'0 0.0
2018-Jun-11 02:30N 37°49' W 122°19'0 0.0
2018-Jun-11 02:00N 37°49' W 122°19'0 0.0
2018-Jun-11 01:30N 37°49' W 122°19'0 0.0
2018-Jun-11 01:00N 37°49' W 122°19'0 0.0
2018-Jun-11 00:30N 37°49' W 122°19'0 0.0
2018-Jun-11 00:00N 37°49' W 122°19'0 0.0
2018-Jun-10 23:30N 37°49' W 122°19'0 0.0
2018-Jun-10 23:00N 37°49' W 122°19'0 0.0
2018-Jun-10 22:30N 37°49' W 122°19'0 0.0
2018-Jun-10 22:00N 37°49' W 122°19'0 0.0
2018-Jun-10 21:30N 37°49' W 122°19'0 0.0
2018-Jun-10 21:00N 37°49' W 122°19'0 0.0
2018-Jun-10 20:30N 37°49' W 122°19'0 0.0
2018-Jun-10 20:00N 37°49' W 122°19'0 0.0
2018-Jun-10 19:30N 37°49' W 122°19'0 0.0
2018-Jun-10 19:00N 37°49' W 122°19'0 0.0
2018-Jun-10 18:30N 37°49' W 122°19'0 0.0
2018-Jun-10 18:00N 37°49' W 122°19'0 0.0
2018-Jun-10 17:30N 37°49' W 122°19'0 0.0
2018-Jun-10 17:00N 37°49' W 122°19'0 0.0
2018-Jun-10 16:30N 37°49' W 122°19'0 0.0
2018-Jun-10 16:00N 37°49' W 122°19'0 0.0
2018-Jun-10 15:30N 37°49' W 122°19'0 0.0
2018-Jun-10 15:00N 37°49' W 122°19'1 1.1
2018-Jun-10 14:30N 37°49' W 122°19'1 1.2
2018-Jun-10 13:30N 37°48' W 122°19'1 2.5
2018-Jun-10 13:00N 37°48' W 122°17'1 2.6
2018-Jun-10 12:30N 37°48' W 122°19'2 4.4
2018-Jun-10 12:00N 37°48' W 122°22'3 5.4
2018-Jun-10 11:30N 37°49' W 122°19'0 0.0
2018-Jun-10 11:00N 37°49' W 122°19'0 0.0
2018-Jun-10 10:30N 37°49' W 122°19'0 0.0
2018-Jun-10 10:00N 37°49' W 122°19'0 0.0
2018-Jun-10 09:30N 37°49' W 122°19'0 0.0
2018-Jun-10 09:00N 37°49' W 122°19'0 0.0
2018-Jun-10 08:30N 37°49' W 122°19'0 0.0
2018-Jun-10 08:00N 37°49' W 122°19'0 0.0
2018-Jun-10 07:30N 37°49' W 122°19'0 0.0
2018-Jun-10 07:00N 37°49' W 122°19'0 0.0
2018-Jun-10 06:30N 37°49' W 122°19'0 0.0
2018-Jun-10 06:00N 37°49' W 122°19'0 0.0
2018-Jun-10 05:30N 37°49' W 122°19'0 0.0
2018-Jun-10 05:00N 37°49' W 122°19'0 0.0
2018-Jun-10 04:29N 37°49' W 122°19'0 0.0
2018-Jun-10 04:00N 37°49' W 122°19'0 0.0
2018-Jun-10 03:30N 37°49' W 122°19'0 0.0
2018-Jun-10 03:00N 37°49' W 122°19'0 0.0
2018-Jun-10 02:30N 37°49' W 122°19'0 0.0
2018-Jun-10 02:00N 37°49' W 122°19'0 0.0
2018-Jun-10 01:30N 37°49' W 122°19'0 0.0
2018-Jun-10 01:00N 37°49' W 122°19'0 0.0
2018-Jun-10 00:30N 37°49' W 122°19'0 0.0
2018-Jun-10 00:00N 37°49' W 122°19'0 0.4
2018-Jun-09 23:30N 37°49' W 122°19'1 2.8
2018-Jun-09 23:00N 37°48' W 122°19'0 0.9
2018-Jun-09 22:30N 37°48' W 122°19'1 2.4
2018-Jun-09 22:00N 37°48' W 122°17'2 3.0
2018-Jun-09 21:30N 37°48' W 122°19'2 4.5
2018-Jun-09 21:00N 37°48' W 122°22'3 5.7
2018-Jun-09 20:30N 37°49' W 122°19'0 0.0
2018-Jun-09 20:00N 37°49' W 122°19'0 0.0
2018-Jun-09 19:30N 37°49' W 122°19'0 0.0
2018-Jun-09 19:00N 37°49' W 122°19'0 0.0
2018-Jun-09 18:30N 37°49' W 122°19'0 0.0
2018-Jun-09 18:00N 37°49' W 122°19'1 2.9
2018-Jun-09 17:30N 37°49' W 122°20'3 5.1
2018-Jun-09 17:00N 37°48' W 122°17'2 3.2
2018-Jun-09 16:30N 37°47' W 122°15'0 0.7
2018-Jun-09 16:00N 37°47' W 122°15'2 1.7
2018-Jun-09 15:00N 37°48' W 122°17'0 0.0
2018-Jun-09 14:30N 37°48' W 122°17'0 0.0
2018-Jun-09 14:00N 37°48' W 122°17'1 2.3
2018-Jun-09 13:31N 37°48' W 122°18'1 1.7
2018-Jun-09 13:00N 37°48' W 122°19'2 3.2
2018-Jun-09 12:30N 37°48' W 122°17'1 2.9
2018-Jun-09 12:00N 37°48' W 122°19'2 4.5
2018-Jun-09 11:30N 37°48' W 122°22'1 2.4
2018-Jun-09 11:00N 37°48' W 122°21'0 0.0
2018-Jun-09 10:30N 37°48' W 122°21'0 0.0
2018-Jun-09 10:00N 37°48' W 122°21'0 0.0
2018-Jun-09 09:30N 37°48' W 122°21'0 0.0
2018-Jun-09 08:58N 37°48' W 122°21'0 0.0
2018-Jun-09 08:30N 37°48' W 122°21'0 0.0
2018-Jun-09 08:00N 37°48' W 122°21'0 0.0
2018-Jun-09 07:30N 37°48' W 122°21'0 0.1
2018-Jun-09 07:00N 37°48' W 122°21'0 0.1
2018-Jun-09 06:30N 37°48' W 122°21'0 0.0
2018-Jun-09 05:59N 37°48' W 122°21'0 0.0
2018-Jun-09 05:30N 37°48' W 122°21'0 0.0
2018-Jun-09 05:00N 37°48' W 122°21'3 5.9
2018-Jun-09 04:30N 37°51' W 122°23'5 9.8
2018-Jun-09 04:00N 37°55' W 122°25'3 5.0
2018-Jun-09 03:30N 37°54' W 122°22'1 1.7
2018-Jun-09 02:57N 37°55' W 122°22'0 0.6
2018-Jun-09 02:30N 37°55' W 122°22'3 5.7
2018-Jun-09 02:00N 37°53' W 122°24'510.2
2018-Jun-09 01:30N 37°48' W 122°21'0 0.0
2018-Jun-09 01:00N 37°48' W 122°21'0 0.0
2018-Jun-09 00:30N 37°48' W 122°21'0 0.0
2018-Jun-09 00:00N 37°48' W 122°21'1 2.0
2018-Jun-08 23:30N 37°48' W 122°20'1 1.1
2018-Jun-08 23:00N 37°48' W 122°19'0 0.1
2018-Jun-08 22:30N 37°48' W 122°19'2 3.2
2018-Jun-08 22:00N 37°49' W 122°19'0 0.0
2018-Jun-08 21:30N 37°49' W 122°19'0 0.0
2018-Jun-08 21:00N 37°49' W 122°19'0 0.0
2018-Jun-08 20:30N 37°49' W 122°19'0 0.0
2018-Jun-08 20:00N 37°49' W 122°19'0 0.0
2018-Jun-08 19:30N 37°49' W 122°19'0 0.0
2018-Jun-08 19:00N 37°49' W 122°19'0 0.0
2018-Jun-08 18:30N 37°49' W 122°19'0 0.0
2018-Jun-08 18:00N 37°49' W 122°19'0 0.0
2018-Jun-08 17:30N 37°49' W 122°19'0 0.0
2018-Jun-08 17:00N 37°49' W 122°19'0 0.0
2018-Jun-08 16:30N 37°49' W 122°19'0 0.0
2018-Jun-08 16:00N 37°49' W 122°19'  

Dump ship's entire track history